La Aurora Airport Guatemala City US
ICAO: MGGT
IATA: GUA
Category: Medium
Scheduled Services: Yes

Elevation: 4952 ft
TransAlt. 18000 ft.

Airport Communications:
GUATEMALA RDO:126.9
CON:119.3
ATIS:126.5
CLNC DEL:120.7
GND:121.9
TWR:118.1

MGGT Zoom In..

If Map Doesn't Load, Click Here

Runways:

(A) RW 01 length 9800 ft width 197 ft
ILS 110.10 / hdg 16

(B) RW 19 length 9800 ft width 197 ft
---- / hdg 196

Location; MGGT
Day. 23 / Time. 08.00 Zulu
* Altimeter: 30.21
* Temperature: CB° c. 32°f.
* Wind from: 360° Speed 10 kn.
Dewpoint: LT° c.
Visibility: 10 km or more.
Clouds: Overcast 1200 ft.

MGGT 230800Z 36010KT 9999 OVC012 18/17 Q1023 A3021 CB/LTNG DITS S


Wind From 360°
Speed 10 kn.

 
 
jpsmedia.com for Web Design worldairports.se 2018   terms of use